sensor_id;sensor_type;location;lat;lon;timestamp;temperature;humidity
13697;DHT22;6920;50.080;8.226;2023-07-13T00:01:16;20.20;95.40
13697;DHT22;6920;50.080;8.226;2023-07-13T00:03:45;19.90;95.60
13697;DHT22;6920;50.080;8.226;2023-07-13T00:06:14;19.80;95.70
13697;DHT22;6920;50.080;8.226;2023-07-13T00:08:44;19.80;96.10
13697;DHT22;6920;50.080;8.226;2023-07-13T00:11:11;19.90;95.90
13697;DHT22;6920;50.080;8.226;2023-07-13T00:13:39;19.70;95.90
13697;DHT22;6920;50.080;8.226;2023-07-13T00:16:08;19.70;96.20
13697;DHT22;6920;50.080;8.226;2023-07-13T00:18:36;19.70;96.40
13697;DHT22;6920;50.080;8.226;2023-07-13T00:21:03;19.80;96.10
13697;DHT22;6920;50.080;8.226;2023-07-13T00:23:33;19.90;95.90
13697;DHT22;6920;50.080;8.226;2023-07-13T00:26:06;20.00;95.80
13697;DHT22;6920;50.080;8.226;2023-07-13T00:28:34;20.10;95.70
13697;DHT22;6920;50.080;8.226;2023-07-13T00:31:02;20.10;95.40
13697;DHT22;6920;50.080;8.226;2023-07-13T00:33:31;20.00;95.90
13697;DHT22;6920;50.080;8.226;2023-07-13T00:36:02;19.80;96.70
13697;DHT22;6920;50.080;8.226;2023-07-13T00:40:58;19.90;96.30
13697;DHT22;6920;50.080;8.226;2023-07-13T00:43:28;19.80;96.60
13697;DHT22;6920;50.080;8.226;2023-07-13T00:46:18;19.80;96.40
13697;DHT22;6920;50.080;8.226;2023-07-13T00:48:47;19.80;96.30
13697;DHT22;6920;50.080;8.226;2023-07-13T00:51:21;19.70;96.60
13697;DHT22;6920;50.080;8.226;2023-07-13T00:53:50;19.70;96.40
13697;DHT22;6920;50.080;8.226;2023-07-13T00:58:47;19.70;96.70
13697;DHT22;6920;50.080;8.226;2023-07-13T01:01:15;19.70;96.70
13697;DHT22;6920;50.080;8.226;2023-07-13T01:03:45;19.70;96.40
13697;DHT22;6920;50.080;8.226;2023-07-13T01:06:15;19.60;96.70
13697;DHT22;6920;50.080;8.226;2023-07-13T01:08:43;19.60;96.80
13697;DHT22;6920;50.080;8.226;2023-07-13T01:11:11;19.60;97.30
13697;DHT22;6920;50.080;8.226;2023-07-13T01:13:38;19.50;97.00
13697;DHT22;6920;50.080;8.226;2023-07-13T01:16:15;19.50;97.20
13697;DHT22;6920;50.080;8.226;2023-07-13T01:18:48;19.50;97.30
13697;DHT22;6920;50.080;8.226;2023-07-13T01:21:18;19.50;97.20
13697;DHT22;6920;50.080;8.226;2023-07-13T01:23:45;19.50;97.30
13697;DHT22;6920;50.080;8.226;2023-07-13T01:26:14;19.50;97.40
13697;DHT22;6920;50.080;8.226;2023-07-13T01:28:42;19.50;97.60
13697;DHT22;6920;50.080;8.226;2023-07-13T01:31:17;19.50;97.40
13697;DHT22;6920;50.080;8.226;2023-07-13T01:33:44;19.40;97.50
13697;DHT22;6920;50.080;8.226;2023-07-13T01:36:12;19.40;98.00
13697;DHT22;6920;50.080;8.226;2023-07-13T01:38:43;19.40;97.70
13697;DHT22;6920;50.080;8.226;2023-07-13T01:41:10;19.50;97.50
13697;DHT22;6920;50.080;8.226;2023-07-13T01:43:38;19.50;97.50
13697;DHT22;6920;50.080;8.226;2023-07-13T01:46:07;19.50;97.80
13697;DHT22;6920;50.080;8.226;2023-07-13T01:48:35;19.60;97.90
13697;DHT22;6920;50.080;8.226;2023-07-13T01:51:03;19.60;97.70
13697;DHT22;6920;50.080;8.226;2023-07-13T01:53:30;19.50;97.80
13697;DHT22;6920;50.080;8.226;2023-07-13T01:55:59;19.40;97.70
13697;DHT22;6920;50.080;8.226;2023-07-13T01:58:26;19.40;98.00
13697;DHT22;6920;50.080;8.226;2023-07-13T02:00:53;19.40;98.20
13697;DHT22;6920;50.080;8.226;2023-07-13T02:05:48;19.40;97.90
13697;DHT22;6920;50.080;8.226;2023-07-13T02:08:15;19.40;98.20
13697;DHT22;6920;50.080;8.226;2023-07-13T02:10:43;19.20;98.10
13697;DHT22;6920;50.080;8.226;2023-07-13T02:13:12;19.30;98.30
13697;DHT22;6920;50.080;8.226;2023-07-13T02:15:39;19.30;98.90
13697;DHT22;6920;50.080;8.226;2023-07-13T02:18:07;19.40;98.50
13697;DHT22;6920;50.080;8.226;2023-07-13T02:20:35;19.50;98.20
13697;DHT22;6920;50.080;8.226;2023-07-13T02:23:02;19.40;98.50
13697;DHT22;6920;50.080;8.226;2023-07-13T02:25:30;19.20;98.80
13697;DHT22;6920;50.080;8.226;2023-07-13T02:27:57;19.10;99.30
13697;DHT22;6920;50.080;8.226;2023-07-13T02:30:27;19.00;99.40
13697;DHT22;6920;50.080;8.226;2023-07-13T02:32:55;18.90;99.70
13697;DHT22;6920;50.080;8.226;2023-07-13T02:35:23;19.00;99.70
13697;DHT22;6920;50.080;8.226;2023-07-13T02:37:50;18.80;99.80
13697;DHT22;6920;50.080;8.226;2023-07-13T02:40:18;18.50;99.90
13697;DHT22;6920;50.080;8.226;2023-07-13T02:42:45;18.60;99.90
13697;DHT22;6920;50.080;8.226;2023-07-13T02:45:12;18.70;99.90
13697;DHT22;6920;50.080;8.226;2023-07-13T02:47:42;18.70;99.90
13697;DHT22;6920;50.080;8.226;2023-07-13T02:50:09;18.60;99.90
13697;DHT22;6920;50.080;8.226;2023-07-13T02:52:36;18.40;99.90
13697;DHT22;6920;50.080;8.226;2023-07-13T02:55:04;18.20;99.90
13697;DHT22;6920;50.080;8.226;2023-07-13T02:57:32;18.20;99.90
13697;DHT22;6920;50.080;8.226;2023-07-13T03:00:00;18.20;99.90
13697;DHT22;6920;50.080;8.226;2023-07-13T03:02:31;18.20;99.90
13697;DHT22;6920;50.080;8.226;2023-07-13T03:05:00;18.10;99.90
13697;DHT22;6920;50.080;8.226;2023-07-13T03:07:27;18.20;99.90
13697;DHT22;6920;50.080;8.226;2023-07-13T03:09:55;18.20;99.90
13697;DHT22;6920;50.080;8.226;2023-07-13T03:12:23;18.20;99.90
13697;DHT22;6920;50.080;8.226;2023-07-13T03:14:50;18.10;99.90
13697;DHT22;6920;50.080;8.226;2023-07-13T03:17:17;18.10;99.90
13697;DHT22;6920;50.080;8.226;2023-07-13T03:19:45;18.00;99.90
13697;DHT22;6920;50.080;8.226;2023-07-13T03:22:16;18.00;99.90
13697;DHT22;6920;50.080;8.226;2023-07-13T03:24:44;18.00;99.90
13697;DHT22;6920;50.080;8.226;2023-07-13T03:27:15;17.90;99.90
13697;DHT22;6920;50.080;8.226;2023-07-13T03:29:42;17.70;99.90
13697;DHT22;6920;50.080;8.226;2023-07-13T03:37:44;17.50;99.90
13697;DHT22;6920;50.080;8.226;2023-07-13T03:40:12;17.60;99.90
13697;DHT22;6920;50.080;8.226;2023-07-13T03:42:39;17.30;99.90
13697;DHT22;6920;50.080;8.226;2023-07-13T03:45:08;17.30;99.90
13697;DHT22;6920;50.080;8.226;2023-07-13T03:47:35;17.30;99.90
13697;DHT22;6920;50.080;8.226;2023-07-13T03:50:02;17.40;99.90
13697;DHT22;6920;50.080;8.226;2023-07-13T03:52:29;17.50;99.90
13697;DHT22;6920;50.080;8.226;2023-07-13T03:54:58;17.50;99.90
13697;DHT22;6920;50.080;8.226;2023-07-13T03:59:53;17.40;99.90
13697;DHT22;6920;50.080;8.226;2023-07-13T04:02:20;17.40;99.90
13697;DHT22;6920;50.080;8.226;2023-07-13T04:04:47;17.40;99.90
13697;DHT22;6920;50.080;8.226;2023-07-13T04:07:14;17.30;99.90
13697;DHT22;6920;50.080;8.226;2023-07-13T04:09:41;17.30;99.90
13697;DHT22;6920;50.080;8.226;2023-07-13T04:12:10;17.30;99.90
13697;DHT22;6920;50.080;8.226;2023-07-13T04:14:39;17.40;99.90
13697;DHT22;6920;50.080;8.226;2023-07-13T04:17:08;17.40;99.90
13697;DHT22;6920;50.080;8.226;2023-07-13T04:19:36;17.50;99.90
13697;DHT22;6920;50.080;8.226;2023-07-13T04:22:04;17.50;99.90
13697;DHT22;6920;50.080;8.226;2023-07-13T04:24:31;17.60;99.90
13697;DHT22;6920;50.080;8.226;2023-07-13T04:26:58;17.60;99.90
13697;DHT22;6920;50.080;8.226;2023-07-13T04:29:28;17.40;99.90
13697;DHT22;6920;50.080;8.226;2023-07-13T04:31:56;17.30;99.90
13697;DHT22;6920;50.080;8.226;2023-07-13T04:34:25;17.30;99.90
13697;DHT22;6920;50.080;8.226;2023-07-13T04:39:20;17.50;99.90
13697;DHT22;6920;50.080;8.226;2023-07-13T04:44:15;17.90;99.90
13697;DHT22;6920;50.080;8.226;2023-07-13T04:46:44;18.00;99.90
13697;DHT22;6920;50.080;8.226;2023-07-13T04:49:14;18.10;99.90
13697;DHT22;6920;50.080;8.226;2023-07-13T04:54:10;18.30;99.90
13697;DHT22;6920;50.080;8.226;2023-07-13T04:59:11;18.40;99.90
13697;DHT22;6920;50.080;8.226;2023-07-13T05:01:43;18.50;99.90
13697;DHT22;6920;50.080;8.226;2023-07-13T05:04:12;18.60;99.90
13697;DHT22;6920;50.080;8.226;2023-07-13T05:06:40;18.60;99.90
13697;DHT22;6920;50.080;8.226;2023-07-13T05:14:05;18.80;99.90
13697;DHT22;6920;50.080;8.226;2023-07-13T05:16:39;18.80;99.90
13697;DHT22;6920;50.080;8.226;2023-07-13T05:19:13;18.90;99.90
13697;DHT22;6920;50.080;8.226;2023-07-13T05:21:41;18.90;99.90
13697;DHT22;6920;50.080;8.226;2023-07-13T05:24:10;19.00;99.90
13697;DHT22;6920;50.080;8.226;2023-07-13T05:26:37;19.00;99.90
13697;DHT22;6920;50.080;8.226;2023-07-13T05:29:04;19.00;99.90
13697;DHT22;6920;50.080;8.226;2023-07-13T05:31:34;19.00;99.90
13697;DHT22;6920;50.080;8.226;2023-07-13T05:34:01;19.20;99.90
13697;DHT22;6920;50.080;8.226;2023-07-13T05:36:43;19.20;99.90
13697;DHT22;6920;50.080;8.226;2023-07-13T05:39:11;19.30;99.90
13697;DHT22;6920;50.080;8.226;2023-07-13T05:44:07;19.40;99.90
13697;DHT22;6920;50.080;8.226;2023-07-13T05:46:34;19.40;99.90
13697;DHT22;6920;50.080;8.226;2023-07-13T05:49:01;19.60;99.90
13697;DHT22;6920;50.080;8.226;2023-07-13T05:51:29;19.70;99.90
13697;DHT22;6920;50.080;8.226;2023-07-13T05:53:57;19.70;99.90
13697;DHT22;6920;50.080;8.226;2023-07-13T05:56:25;19.70;99.90
13697;DHT22;6920;50.080;8.226;2023-07-13T05:58:53;19.70;99.90
13697;DHT22;6920;50.080;8.226;2023-07-13T06:01:20;19.80;99.90
13697;DHT22;6920;50.080;8.226;2023-07-13T06:03:49;19.90;99.90
13697;DHT22;6920;50.080;8.226;2023-07-13T06:06:17;20.00;99.90
13697;DHT22;6920;50.080;8.226;2023-07-13T06:08:44;20.20;99.90
13697;DHT22;6920;50.080;8.226;2023-07-13T06:11:16;20.30;99.70
13697;DHT22;6920;50.080;8.226;2023-07-13T06:13:44;20.20;99.40
13697;DHT22;6920;50.080;8.226;2023-07-13T06:16:11;20.20;99.30
13697;DHT22;6920;50.080;8.226;2023-07-13T06:18:41;20.40;99.30
13697;DHT22;6920;50.080;8.226;2023-07-13T06:23:38;20.60;98.90
13697;DHT22;6920;50.080;8.226;2023-07-13T06:28:36;21.30;98.20
13697;DHT22;6920;50.080;8.226;2023-07-13T06:31:05;21.60;97.80
13697;DHT22;6920;50.080;8.226;2023-07-13T06:33:33;22.10;97.60
13697;DHT22;6920;50.080;8.226;2023-07-13T06:36:01;22.30;97.00
13697;DHT22;6920;50.080;8.226;2023-07-13T06:38:28;22.80;96.40
13697;DHT22;6920;50.080;8.226;2023-07-13T06:40:56;22.70;96.50
13697;DHT22;6920;50.080;8.226;2023-07-13T06:43:24;23.30;95.60
13697;DHT22;6920;50.080;8.226;2023-07-13T06:45:55;23.50;95.70
13697;DHT22;6920;50.080;8.226;2023-07-13T06:48:22;23.40;95.30
13697;DHT22;6920;50.080;8.226;2023-07-13T06:50:50;23.20;95.60
13697;DHT22;6920;50.080;8.226;2023-07-13T06:53:20;23.30;95.50
13697;DHT22;6920;50.080;8.226;2023-07-13T06:55:51;23.10;95.50
13697;DHT22;6920;50.080;8.226;2023-07-13T06:58:19;23.30;95.40
13697;DHT22;6920;50.080;8.226;2023-07-13T07:00:50;23.30;95.00
13697;DHT22;6920;50.080;8.226;2023-07-13T07:03:21;23.40;95.00
13697;DHT22;6920;50.080;8.226;2023-07-13T07:05:48;23.50;95.00
13697;DHT22;6920;50.080;8.226;2023-07-13T07:08:15;23.50;95.00
13697;DHT22;6920;50.080;8.226;2023-07-13T07:10:43;23.80;94.80
13697;DHT22;6920;50.080;8.226;2023-07-13T07:15:38;24.00;94.20
13697;DHT22;6920;50.080;8.226;2023-07-13T07:20:37;24.40;93.40
13697;DHT22;6920;50.080;8.226;2023-07-13T07:23:06;24.30;92.90
13697;DHT22;6920;50.080;8.226;2023-07-13T07:25:33;24.20;93.10
13697;DHT22;6920;50.080;8.226;2023-07-13T07:28:03;24.00;93.00
13697;DHT22;6920;50.080;8.226;2023-07-13T07:30:30;24.10;93.00
13697;DHT22;6920;50.080;8.226;2023-07-13T07:32:57;24.10;92.80
13697;DHT22;6920;50.080;8.226;2023-07-13T07:35:24;24.00;92.60
13697;DHT22;6920;50.080;8.226;2023-07-13T07:37:53;24.00;92.80
13697;DHT22;6920;50.080;8.226;2023-07-13T07:40:20;24.20;92.60
13697;DHT22;6920;50.080;8.226;2023-07-13T07:42:47;24.20;92.30
13697;DHT22;6920;50.080;8.226;2023-07-13T07:45:14;24.40;92.10
13697;DHT22;6920;50.080;8.226;2023-07-13T07:47:41;24.60;91.80
13697;DHT22;6920;50.080;8.226;2023-07-13T07:50:11;24.50;92.00
13697;DHT22;6920;50.080;8.226;2023-07-13T07:55:11;25.10;91.40
13697;DHT22;6920;50.080;8.226;2023-07-13T07:57:41;25.30;91.20
13697;DHT22;6920;50.080;8.226;2023-07-13T08:00:09;25.40;90.40
13697;DHT22;6920;50.080;8.226;2023-07-13T08:02:38;25.60;90.60
13697;DHT22;6920;50.080;8.226;2023-07-13T08:05:08;25.60;89.50
13697;DHT22;6920;50.080;8.226;2023-07-13T08:07:37;25.40;89.50
13697;DHT22;6920;50.080;8.226;2023-07-13T08:10:05;24.90;89.20
13697;DHT22;6920;50.080;8.226;2023-07-13T08:12:39;24.80;89.70
13697;DHT22;6920;50.080;8.226;2023-07-13T08:15:11;24.90;89.80
13697;DHT22;6920;50.080;8.226;2023-07-13T08:17:40;25.20;88.90
13697;DHT22;6920;50.080;8.226;2023-07-13T08:20:10;25.80;88.70
13697;DHT22;6920;50.080;8.226;2023-07-13T08:22:39;25.70;87.70
13697;DHT22;6920;50.080;8.226;2023-07-13T08:25:08;25.70;87.50
13697;DHT22;6920;50.080;8.226;2023-07-13T08:27:39;25.10;88.10
13697;DHT22;6920;50.080;8.226;2023-07-13T08:30:13;25.20;88.50
13697;DHT22;6920;50.080;8.226;2023-07-13T08:32:48;25.10;89.60
13697;DHT22;6920;50.080;8.226;2023-07-13T08:35:23;25.10;88.60
13697;DHT22;6920;50.080;8.226;2023-07-13T08:40:29;25.50;88.90
13697;DHT22;6920;50.080;8.226;2023-07-13T08:43:01;25.60;87.80
13697;DHT22;6920;50.080;8.226;2023-07-13T08:45:34;26.00;86.20
13697;DHT22;6920;50.080;8.226;2023-07-13T08:48:10;26.00;85.50
13697;DHT22;6920;50.080;8.226;2023-07-13T08:50:57;26.20;85.30
13697;DHT22;6920;50.080;8.226;2023-07-13T08:53:29;26.70;84.80
13697;DHT22;6920;50.080;8.226;2023-07-13T08:56:02;26.90;82.70
13697;DHT22;6920;50.080;8.226;2023-07-13T08:58:35;26.80;82.60
13697;DHT22;6920;50.080;8.226;2023-07-13T09:01:10;26.60;82.80
13697;DHT22;6920;50.080;8.226;2023-07-13T09:03:46;26.40;82.90
13697;DHT22;6920;50.080;8.226;2023-07-13T09:06:35;26.60;81.90
13697;DHT22;6920;50.080;8.226;2023-07-13T09:09:15;26.50;82.00
13697;DHT22;6920;50.080;8.226;2023-07-13T09:11:55;26.80;81.40
13697;DHT22;6920;50.080;8.226;2023-07-13T09:14:34;26.50;81.00
13697;DHT22;6920;50.080;8.226;2023-07-13T09:17:13;26.70;81.40
13697;DHT22;6920;50.080;8.226;2023-07-13T09:19:47;26.70;80.90
13697;DHT22;6920;50.080;8.226;2023-07-13T09:22:20;26.40;82.30
13697;DHT22;6920;50.080;8.226;2023-07-13T09:25:01;26.50;82.10
13697;DHT22;6920;50.080;8.226;2023-07-13T09:27:36;26.50;81.10
13697;DHT22;6920;50.080;8.226;2023-07-13T09:30:24;26.50;81.30
13697;DHT22;6920;50.080;8.226;2023-07-13T09:32:55;26.60;81.20
13697;DHT22;6920;50.080;8.226;2023-07-13T09:35:28;26.90;80.80
13697;DHT22;6920;50.080;8.226;2023-07-13T09:38:11;26.70;80.30
13697;DHT22;6920;50.080;8.226;2023-07-13T09:43:10;26.80;80.30
13697;DHT22;6920;50.080;8.226;2023-07-13T09:45:46;26.60;80.00
13697;DHT22;6920;50.080;8.226;2023-07-13T09:48:17;26.60;79.40
13697;DHT22;6920;50.080;8.226;2023-07-13T09:50:47;26.30;79.40
13697;DHT22;6920;50.080;8.226;2023-07-13T09:53:16;26.10;80.00
13697;DHT22;6920;50.080;8.226;2023-07-13T10:14:15;26.60;78.70
13697;DHT22;6920;50.080;8.226;2023-07-13T10:16:43;26.30;78.20
13697;DHT22;6920;50.080;8.226;2023-07-13T10:19:13;26.40;78.30
13697;DHT22;6920;50.080;8.226;2023-07-13T10:21:47;26.90;77.80
13697;DHT22;6920;50.080;8.226;2023-07-13T10:24:21;26.90;77.70
13697;DHT22;6920;50.080;8.226;2023-07-13T10:26:54;27.10;77.60
13697;DHT22;6920;50.080;8.226;2023-07-13T10:29:28;26.80;77.70
13697;DHT22;6920;50.080;8.226;2023-07-13T10:31:59;26.40;76.10
13697;DHT22;6920;50.080;8.226;2023-07-13T10:34:28;26.10;77.10
13697;DHT22;6920;50.080;8.226;2023-07-13T10:36:58;26.00;77.90
13697;DHT22;6920;50.080;8.226;2023-07-13T10:39:28;25.70;77.60
13697;DHT22;6920;50.080;8.226;2023-07-13T10:42:03;26.20;77.00
13697;DHT22;6920;50.080;8.226;2023-07-13T10:44:33;26.60;76.00
13697;DHT22;6920;50.080;8.226;2023-07-13T10:47:03;27.00;75.10
13697;DHT22;6920;50.080;8.226;2023-07-13T10:49:35;26.40;74.60
13697;DHT22;6920;50.080;8.226;2023-07-13T10:52:20;25.90;75.90
13697;DHT22;6920;50.080;8.226;2023-07-13T10:55:03;25.80;77.40
13697;DHT22;6920;50.080;8.226;2023-07-13T10:57:42;25.50;76.30
13697;DHT22;6920;50.080;8.226;2023-07-13T11:00:16;25.20;76.50
13697;DHT22;6920;50.080;8.226;2023-07-13T11:02:56;25.40;76.90
13697;DHT22;6920;50.080;8.226;2023-07-13T11:05:28;25.30;75.60
13697;DHT22;6920;50.080;8.226;2023-07-13T11:08:11;25.60;77.10
13697;DHT22;6920;50.080;8.226;2023-07-13T11:10:52;26.60;76.30
13697;DHT22;6920;50.080;8.226;2023-07-13T11:16:44;26.90;75.80
13697;DHT22;6920;50.080;8.226;2023-07-13T11:19:40;27.00;76.30
13697;DHT22;6920;50.080;8.226;2023-07-13T11:22:20;26.90;76.00
13697;DHT22;6920;50.080;8.226;2023-07-13T11:24:50;27.00;75.30
13697;DHT22;6920;50.080;8.226;2023-07-13T11:27:24;27.30;75.00
13697;DHT22;6920;50.080;8.226;2023-07-13T11:30:07;27.90;73.20
13697;DHT22;6920;50.080;8.226;2023-07-13T11:32:38;28.10;72.90
13697;DHT22;6920;50.080;8.226;2023-07-13T11:35:12;27.90;73.20
13697;DHT22;6920;50.080;8.226;2023-07-13T11:37:41;27.70;72.90
13697;DHT22;6920;50.080;8.226;2023-07-13T11:40:13;27.10;73.70
13697;DHT22;6920;50.080;8.226;2023-07-13T11:42:42;27.10;74.00
13697;DHT22;6920;50.080;8.226;2023-07-13T11:45:20;27.40;73.10
13697;DHT22;6920;50.080;8.226;2023-07-13T11:47:50;27.80;72.80
13697;DHT22;6920;50.080;8.226;2023-07-13T11:50:18;27.60;72.70
13697;DHT22;6920;50.080;8.226;2023-07-13T11:55:15;26.80;75.20
13697;DHT22;6920;50.080;8.226;2023-07-13T11:57:49;26.60;75.70
13697;DHT22;6920;50.080;8.226;2023-07-13T12:00:18;26.60;76.20
13697;DHT22;6920;50.080;8.226;2023-07-13T12:02:51;26.30;76.00
13697;DHT22;6920;50.080;8.226;2023-07-13T12:05:20;26.30;76.10
13697;DHT22;6920;50.080;8.226;2023-07-13T12:07:48;26.30;75.90
13697;DHT22;6920;50.080;8.226;2023-07-13T12:10:20;26.50;76.40
13697;DHT22;6920;50.080;8.226;2023-07-13T12:12:51;26.70;75.80
13697;DHT22;6920;50.080;8.226;2023-07-13T12:15:19;26.80;75.20
13697;DHT22;6920;50.080;8.226;2023-07-13T12:17:50;26.60;73.30
13697;DHT22;6920;50.080;8.226;2023-07-13T12:20:23;26.50;73.00
13697;DHT22;6920;50.080;8.226;2023-07-13T12:22:53;26.90;73.50
13697;DHT22;6920;50.080;8.226;2023-07-13T12:25:28;26.80;74.20
13697;DHT22;6920;50.080;8.226;2023-07-13T12:27:56;26.70;74.80
13697;DHT22;6920;50.080;8.226;2023-07-13T12:30:28;26.60;75.10
13697;DHT22;6920;50.080;8.226;2023-07-13T12:33:01;26.50;75.70
13697;DHT22;6920;50.080;8.226;2023-07-13T12:35:40;26.50;75.80
13697;DHT22;6920;50.080;8.226;2023-07-13T12:38:10;26.50;75.90
13697;DHT22;6920;50.080;8.226;2023-07-13T12:40:38;26.50;74.50
13697;DHT22;6920;50.080;8.226;2023-07-13T12:43:11;26.20;74.70
13697;DHT22;6920;50.080;8.226;2023-07-13T12:45:55;26.10;75.20
13697;DHT22;6920;50.080;8.226;2023-07-13T12:48:25;26.20;75.30
13697;DHT22;6920;50.080;8.226;2023-07-13T12:50:54;26.00;76.30
13697;DHT22;6920;50.080;8.226;2023-07-13T12:53:27;25.80;76.40
13697;DHT22;6920;50.080;8.226;2023-07-13T12:55:57;25.90;77.50
13697;DHT22;6920;50.080;8.226;2023-07-13T12:58:27;26.10;76.10
13697;DHT22;6920;50.080;8.226;2023-07-13T13:00:58;26.50;75.60
13697;DHT22;6920;50.080;8.226;2023-07-13T13:03:30;27.10;74.60
13697;DHT22;6920;50.080;8.226;2023-07-13T13:06:00;27.10;74.10
13697;DHT22;6920;50.080;8.226;2023-07-13T13:08:31;26.70;74.40
13697;DHT22;6920;50.080;8.226;2023-07-13T13:10:58;26.40;75.00
13697;DHT22;6920;50.080;8.226;2023-07-13T13:13:25;26.20;75.40
13697;DHT22;6920;50.080;8.226;2023-07-13T13:15:53;26.30;76.10
13697;DHT22;6920;50.080;8.226;2023-07-13T13:18:22;26.20;75.80
13697;DHT22;6920;50.080;8.226;2023-07-13T13:20:51;26.20;75.50
13697;DHT22;6920;50.080;8.226;2023-07-13T13:23:20;26.20;76.20
13697;DHT22;6920;50.080;8.226;2023-07-13T13:25:50;26.40;75.20
13697;DHT22;6920;50.080;8.226;2023-07-13T13:28:20;26.50;75.60
13697;DHT22;6920;50.080;8.226;2023-07-13T13:30:50;26.30;75.90
13697;DHT22;6920;50.080;8.226;2023-07-13T13:33:20;26.10;76.30
13697;DHT22;6920;50.080;8.226;2023-07-13T13:35:52;25.90;76.70
13697;DHT22;6920;50.080;8.226;2023-07-13T13:38:22;25.60;77.40
13697;DHT22;6920;50.080;8.226;2023-07-13T13:43:21;25.40;78.50
13697;DHT22;6920;50.080;8.226;2023-07-13T13:45:52;25.30;79.10
13697;DHT22;6920;50.080;8.226;2023-07-13T13:48:31;25.30;79.90
13697;DHT22;6920;50.080;8.226;2023-07-13T13:51:01;25.30;80.10
13697;DHT22;6920;50.080;8.226;2023-07-13T13:53:31;25.30;80.00
13697;DHT22;6920;50.080;8.226;2023-07-13T13:55:58;25.50;79.40
13697;DHT22;6920;50.080;8.226;2023-07-13T13:58:30;25.50;80.00
13697;DHT22;6920;50.080;8.226;2023-07-13T14:01:18;25.50;80.00
13697;DHT22;6920;50.080;8.226;2023-07-13T14:03:49;25.60;79.50
13697;DHT22;6920;50.080;8.226;2023-07-13T14:06:23;25.60;79.60
13697;DHT22;6920;50.080;8.226;2023-07-13T14:08:53;25.70;79.30
13697;DHT22;6920;50.080;8.226;2023-07-13T14:11:25;25.50;79.00
13697;DHT22;6920;50.080;8.226;2023-07-13T14:13:59;25.50;79.40
13697;DHT22;6920;50.080;8.226;2023-07-13T14:16:31;25.50;78.20
13697;DHT22;6920;50.080;8.226;2023-07-13T14:19:02;25.40;78.90
13697;DHT22;6920;50.080;8.226;2023-07-13T14:21:35;25.30;78.10
13697;DHT22;6920;50.080;8.226;2023-07-13T14:24:03;25.10;78.20
13697;DHT22;6920;50.080;8.226;2023-07-13T14:26:36;25.10;78.90
13697;DHT22;6920;50.080;8.226;2023-07-13T14:29:13;25.20;78.80
13697;DHT22;6920;50.080;8.226;2023-07-13T14:31:43;25.30;79.10
13697;DHT22;6920;50.080;8.226;2023-07-13T14:34:15;25.40;78.30
13697;DHT22;6920;50.080;8.226;2023-07-13T14:36:48;25.40;77.60
13697;DHT22;6920;50.080;8.226;2023-07-13T14:39:22;25.50;78.10
13697;DHT22;6920;50.080;8.226;2023-07-13T14:41:52;25.50;77.80
13697;DHT22;6920;50.080;8.226;2023-07-13T14:44:26;25.50;78.20
13697;DHT22;6920;50.080;8.226;2023-07-13T14:46:57;25.50;77.50
13697;DHT22;6920;50.080;8.226;2023-07-13T14:49:29;25.50;77.20
13697;DHT22;6920;50.080;8.226;2023-07-13T14:52:09;25.50;77.80
13697;DHT22;6920;50.080;8.226;2023-07-13T14:54:43;25.50;78.00
13697;DHT22;6920;50.080;8.226;2023-07-13T14:57:13;25.50;77.80
13697;DHT22;6920;50.080;8.226;2023-07-13T14:59:42;25.60;78.00
13697;DHT22;6920;50.080;8.226;2023-07-13T15:02:16;25.70;78.00
13697;DHT22;6920;50.080;8.226;2023-07-13T15:04:48;25.50;77.50
13697;DHT22;6920;50.080;8.226;2023-07-13T15:07:18;25.40;77.50
13697;DHT22;6920;50.080;8.226;2023-07-13T15:09:49;25.30;77.40
13697;DHT22;6920;50.080;8.226;2023-07-13T15:12:18;25.10;77.90
13697;DHT22;6920;50.080;8.226;2023-07-13T15:14:46;25.20;77.60
13697;DHT22;6920;50.080;8.226;2023-07-13T15:17:25;25.30;77.50
13697;DHT22;6920;50.080;8.226;2023-07-13T15:19:53;25.30;77.40
13697;DHT22;6920;50.080;8.226;2023-07-13T15:22:30;25.30;77.90
13697;DHT22;6920;50.080;8.226;2023-07-13T15:25:15;25.50;77.50
13697;DHT22;6920;50.080;8.226;2023-07-13T15:27:53;25.70;77.50
13697;DHT22;6920;50.080;8.226;2023-07-13T15:30:28;25.60;76.50
13697;DHT22;6920;50.080;8.226;2023-07-13T15:33:05;25.40;76.70
13697;DHT22;6920;50.080;8.226;2023-07-13T15:35:39;25.30;77.20
13697;DHT22;6920;50.080;8.226;2023-07-13T15:38:17;25.40;76.70
13697;DHT22;6920;50.080;8.226;2023-07-13T15:40:47;25.50;77.10
13697;DHT22;6920;50.080;8.226;2023-07-13T15:43:17;25.60;76.70
13697;DHT22;6920;50.080;8.226;2023-07-13T15:45:45;25.60;76.90
13697;DHT22;6920;50.080;8.226;2023-07-13T15:48:14;25.60;76.40
13697;DHT22;6920;50.080;8.226;2023-07-13T15:50:45;26.00;76.70
13697;DHT22;6920;50.080;8.226;2023-07-13T15:53:25;26.10;76.10
13697;DHT22;6920;50.080;8.226;2023-07-13T15:55:57;26.20;76.20
13697;DHT22;6920;50.080;8.226;2023-07-13T15:58:25;26.60;76.00
13697;DHT22;6920;50.080;8.226;2023-07-13T16:00:55;26.60;75.10
13697;DHT22;6920;50.080;8.226;2023-07-13T16:03:25;26.60;74.40
13697;DHT22;6920;50.080;8.226;2023-07-13T16:06:01;26.50;74.20
13697;DHT22;6920;50.080;8.226;2023-07-13T16:08:33;25.70;72.90
13697;DHT22;6920;50.080;8.226;2023-07-13T16:11:02;25.80;73.70
13697;DHT22;6920;50.080;8.226;2023-07-13T16:13:33;25.70;73.80
13697;DHT22;6920;50.080;8.226;2023-07-13T16:16:03;25.90;74.10
13697;DHT22;6920;50.080;8.226;2023-07-13T16:18:37;26.00;73.80
13697;DHT22;6920;50.080;8.226;2023-07-13T16:21:12;25.80;73.60
13697;DHT22;6920;50.080;8.226;2023-07-13T16:23:49;25.60;73.80
13697;DHT22;6920;50.080;8.226;2023-07-13T16:26:23;25.30;74.30
13697;DHT22;6920;50.080;8.226;2023-07-13T16:28:52;25.30;74.80
13697;DHT22;6920;50.080;8.226;2023-07-13T16:31:31;25.50;75.20
13697;DHT22;6920;50.080;8.226;2023-07-13T16:34:00;25.60;75.00
13697;DHT22;6920;50.080;8.226;2023-07-13T16:36:30;25.40;74.80
13697;DHT22;6920;50.080;8.226;2023-07-13T16:39:04;25.30;75.00
13697;DHT22;6920;50.080;8.226;2023-07-13T16:41:38;25.20;75.60
13697;DHT22;6920;50.080;8.226;2023-07-13T16:44:12;25.10;76.80
13697;DHT22;6920;50.080;8.226;2023-07-13T16:46:43;25.10;76.40
13697;DHT22;6920;50.080;8.226;2023-07-13T16:49:22;25.20;76.30
13697;DHT22;6920;50.080;8.226;2023-07-13T16:51:52;25.30;76.00
13697;DHT22;6920;50.080;8.226;2023-07-13T16:54:31;25.30;76.80
13697;DHT22;6920;50.080;8.226;2023-07-13T16:57:06;25.20;76.40
13697;DHT22;6920;50.080;8.226;2023-07-13T16:59:42;25.30;77.00
13697;DHT22;6920;50.080;8.226;2023-07-13T17:02:40;25.30;76.10
13697;DHT22;6920;50.080;8.226;2023-07-13T17:05:10;25.00;76.60
13697;DHT22;6920;50.080;8.226;2023-07-13T17:07:40;25.10;78.00
13697;DHT22;6920;50.080;8.226;2023-07-13T17:10:18;25.00;76.80
13697;DHT22;6920;50.080;8.226;2023-07-13T17:12:56;24.90;77.50
13697;DHT22;6920;50.080;8.226;2023-07-13T17:15:36;24.90;77.80
13697;DHT22;6920;50.080;8.226;2023-07-13T17:18:09;24.80;77.80
13697;DHT22;6920;50.080;8.226;2023-07-13T17:20:40;24.70;78.10
13697;DHT22;6920;50.080;8.226;2023-07-13T17:23:15;24.70;78.60
13697;DHT22;6920;50.080;8.226;2023-07-13T17:25:47;24.70;78.70